createdAt,value
2022-11-05T00:00:32.982Z,3.58
2022-11-05T00:03:19.043Z,4.43
2022-11-05T00:06:07.513Z,4.30
2022-11-05T00:08:53.388Z,4.07
2022-11-05T00:11:40.547Z,4.25
2022-11-05T00:14:26.222Z,5.10
2022-11-05T00:16:53.197Z,3.91
2022-11-05T00:19:20.154Z,4.38
2022-11-05T00:22:05.934Z,5.03
2022-11-05T00:24:51.533Z,3.65
2022-11-05T00:27:18.455Z,4.00
2022-11-05T00:29:45.500Z,4.18
2022-11-05T00:32:13.203Z,4.40
2022-11-05T00:34:40.092Z,4.72
2022-11-05T00:37:07.569Z,4.28
2022-11-05T00:39:35.225Z,5.97
2022-11-05T00:42:20.822Z,4.22
2022-11-05T00:45:02.910Z,3.83
2022-11-05T00:47:51.075Z,4.25
2022-11-05T00:50:20.501Z,4.15
2022-11-05T00:53:00.377Z,4.13
2022-11-05T00:55:42.445Z,3.58
2022-11-05T00:58:12.884Z,3.42
2022-11-05T01:00:48.878Z,4.40
2022-11-05T01:03:19.002Z,4.72
2022-11-05T01:05:50.832Z,4.97
2022-11-05T01:08:21.280Z,3.90
2022-11-05T01:10:52.287Z,5.55
2022-11-05T01:13:29.553Z,4.60
2022-11-05T01:15:57.595Z,5.95
2022-11-05T01:18:24.743Z,4.70
2022-11-05T01:20:51.758Z,3.97
2022-11-05T01:23:19.158Z,4.72
2022-11-05T01:25:46.459Z,4.40
2022-11-05T01:28:13.457Z,4.20
2022-11-05T01:30:40.457Z,5.07
2022-11-05T01:33:07.865Z,5.38
2022-11-05T01:35:34.962Z,6.43
2022-11-05T01:38:02.576Z,4.38
2022-11-05T01:40:29.834Z,5.00
2022-11-05T01:42:56.724Z,4.80
2022-11-05T01:45:27.160Z,5.30
2022-11-05T01:48:18.811Z,4.40
2022-11-05T01:51:03.277Z,4.55
2022-11-05T01:56:15.241Z,4.65
2022-11-05T01:58:57.285Z,5.07
2022-11-05T02:01:24.951Z,4.82
2022-11-05T02:03:56.441Z,3.95
2022-11-05T02:06:23.441Z,3.92
2022-11-05T02:09:07.188Z,5.47
2022-11-05T02:11:34.763Z,3.83
2022-11-05T02:14:01.811Z,4.68
2022-11-05T02:16:45.001Z,5.75
2022-11-05T02:19:30.171Z,4.30
2022-11-05T02:22:25.671Z,3.65
2022-11-05T02:25:02.855Z,4.03
2022-11-05T02:27:41.561Z,4.50
2022-11-05T02:30:51.868Z,3.83
2022-11-05T02:33:41.477Z,4.80
2022-11-05T02:36:28.848Z,5.07
2022-11-05T02:39:17.131Z,4.75
2022-11-05T02:42:12.171Z,4.38
2022-11-05T02:44:57.695Z,4.05
2022-11-05T02:47:46.039Z,4.97
2022-11-05T02:50:24.462Z,3.90
2022-11-05T02:53:17.769Z,3.97
2022-11-05T02:56:05.461Z,4.85
2022-11-05T02:58:35.889Z,4.00
2022-11-05T03:01:06.959Z,4.15
2022-11-05T03:03:54.227Z,5.15
2022-11-05T03:06:48.357Z,3.35
2022-11-05T03:09:59.021Z,4.88
2022-11-05T03:13:01.351Z,3.90
2022-11-05T03:15:48.789Z,4.45
2022-11-05T03:18:32.991Z,3.72
2022-11-05T03:21:12.704Z,3.95
2022-11-05T03:23:56.852Z,4.53
2022-11-05T03:26:33.359Z,5.30
2022-11-05T03:29:19.643Z,4.93
2022-11-05T03:31:49.511Z,3.75
2022-11-05T03:34:22.456Z,4.00
2022-11-05T03:36:54.329Z,4.10
2022-11-05T03:39:29.709Z,4.53
2022-11-05T03:41:58.154Z,4.97
2022-11-05T03:44:34.713Z,4.45
2022-11-05T03:47:07.033Z,3.80
2022-11-05T03:49:44.110Z,4.03
2022-11-05T03:52:20.002Z,4.57
2022-11-05T03:54:47.470Z,4.78
2022-11-05T03:57:32.898Z,3.67
2022-11-05T04:00:00.107Z,4.25
2022-11-05T04:02:27.474Z,4.40
2022-11-05T04:04:55.327Z,4.18
2022-11-05T04:07:40.602Z,3.80
2022-11-05T04:10:26.604Z,4.05
2022-11-05T04:13:12.435Z,4.03
2022-11-05T04:15:57.965Z,3.88
2022-11-05T04:18:24.988Z,3.90
2022-11-05T04:21:10.467Z,4.20
2022-11-05T04:23:56.105Z,4.72
2022-11-05T04:26:23.595Z,3.92
2022-11-05T04:29:10.449Z,3.92
2022-11-05T04:31:38.591Z,4.25
2022-11-05T04:34:05.934Z,4.47
2022-11-05T04:36:33.433Z,4.45
2022-11-05T04:39:00.513Z,4.90
2022-11-05T04:41:27.505Z,5.45
2022-11-05T04:43:54.443Z,5.97
2022-11-05T04:46:21.624Z,5.22
2022-11-05T04:48:48.618Z,6.28
2022-11-05T04:51:15.525Z,5.13
2022-11-05T04:53:42.458Z,5.10
2022-11-05T04:56:20.467Z,4.85
2022-11-05T04:58:48.545Z,4.55
2022-11-05T05:01:19.191Z,4.57
2022-11-05T05:03:55.580Z,4.25
2022-11-05T05:06:23.215Z,5.50
2022-11-05T05:08:52.132Z,6.43
2022-11-05T05:11:21.901Z,5.70
2022-11-05T05:13:49.862Z,5.88
2022-11-05T05:16:26.532Z,6.00
2022-11-05T05:18:54.384Z,4.38
2022-11-05T05:21:38.737Z,5.43
2022-11-05T05:24:18.630Z,5.32
2022-11-05T05:26:48.943Z,4.28
2022-11-05T05:29:17.628Z,3.78
2022-11-05T05:31:45.334Z,5.20
2022-11-05T05:34:14.162Z,4.63
2022-11-05T05:36:41.289Z,4.72
2022-11-05T05:39:10.983Z,4.25
2022-11-05T05:41:38.768Z,4.70
2022-11-05T05:44:06.555Z,5.63
2022-11-05T05:46:33.790Z,5.15
2022-11-05T05:49:00.848Z,5.10
2022-11-05T05:51:27.827Z,4.78
2022-11-05T05:53:54.969Z,4.75
2022-11-05T05:56:22.296Z,6.00
2022-11-05T05:58:49.694Z,6.28
2022-11-05T06:01:20.006Z,6.38
2022-11-05T06:03:48.991Z,5.82
2022-11-05T06:06:19.999Z,6.63
2022-11-05T06:08:47.796Z,5.95
2022-11-05T06:11:14.889Z,6.13
2022-11-05T06:13:42.004Z,6.13
2022-11-05T06:16:10.059Z,5.82
2022-11-05T06:18:37.796Z,6.35
2022-11-05T06:21:11.740Z,5.95
2022-11-05T06:23:40.919Z,5.78
2022-11-05T06:26:11.865Z,6.18
2022-11-05T06:28:39.224Z,6.47
2022-11-05T06:31:06.803Z,7.60
2022-11-05T06:33:33.934Z,7.45
2022-11-05T06:36:03.011Z,7.95
2022-11-05T06:38:34.736Z,5.53
2022-11-05T06:41:09.875Z,5.97
2022-11-05T06:43:38.462Z,7.30
2022-11-05T06:46:05.886Z,7.10
2022-11-05T06:48:34.060Z,6.78
2022-11-05T06:51:01.553Z,8.40
2022-11-05T06:53:30.827Z,7.85
2022-11-05T06:55:57.804Z,7.30
2022-11-05T06:58:24.865Z,8.75
2022-11-05T07:00:52.232Z,7.82
2022-11-05T07:03:19.430Z,8.02
2022-11-05T07:05:49.740Z,8.30
2022-11-05T07:08:17.420Z,7.82
2022-11-05T07:10:44.438Z,8.23
2022-11-05T07:13:11.885Z,8.40
2022-11-05T07:15:39.233Z,8.75
2022-11-05T07:18:09.933Z,8.15
2022-11-05T07:20:36.900Z,8.90
2022-11-05T07:23:08.671Z,8.35
2022-11-05T07:25:36.495Z,9.52
2022-11-05T07:28:04.409Z,10.85
2022-11-05T07:30:33.977Z,8.68
2022-11-05T07:33:01.531Z,8.18
2022-11-05T07:35:29.122Z,8.45
2022-11-05T07:37:56.936Z,8.30
2022-11-05T07:40:27.627Z,8.13
2022-11-05T07:43:01.077Z,6.30
2022-11-05T07:45:31.041Z,6.60
2022-11-05T07:48:03.861Z,6.05
2022-11-05T07:50:35.040Z,6.38
2022-11-05T07:53:15.676Z,5.75
2022-11-05T07:55:44.206Z,5.47
2022-11-05T07:58:11.385Z,6.47
2022-11-05T08:00:38.974Z,5.60
2022-11-05T08:03:15.902Z,5.10
2022-11-05T08:05:46.237Z,5.30
2022-11-05T08:08:16.612Z,4.75
2022-11-05T08:10:43.657Z,4.57
2022-11-05T08:13:12.321Z,4.03
2022-11-05T08:15:40.885Z,3.85
2022-11-05T08:18:12.714Z,3.42
2022-11-05T08:20:40.799Z,3.25
2022-11-05T08:23:08.110Z,4.43
2022-11-05T08:25:35.464Z,3.78
2022-11-05T08:28:07.767Z,3.92
2022-11-05T08:30:35.786Z,3.25
2022-11-05T08:33:07.989Z,3.90
2022-11-05T08:35:36.631Z,4.43
2022-11-05T08:38:07.326Z,4.22
2022-11-05T08:40:36.265Z,3.47
2022-11-05T08:43:06.731Z,3.33
2022-11-05T08:45:38.233Z,3.70
2022-11-05T08:48:10.419Z,3.42
2022-11-05T08:50:38.703Z,3.65
2022-11-05T08:53:06.604Z,3.58
2022-11-05T08:55:34.077Z,3.22
2022-11-05T08:58:15.171Z,3.97
2022-11-05T09:00:45.305Z,3.88
2022-11-05T09:03:13.307Z,3.80
2022-11-05T09:05:43.041Z,3.65
2022-11-05T09:08:14.801Z,3.85
2022-11-05T09:10:49.542Z,3.95
2022-11-05T09:13:19.685Z,3.47
2022-11-05T09:15:49.165Z,3.72
2022-11-05T09:18:18.134Z,3.50
2022-11-05T09:20:45.309Z,3.35
2022-11-05T09:23:15.104Z,3.47
2022-11-05T09:25:43.054Z,3.20
2022-11-05T09:28:18.825Z,3.63
2022-11-05T09:30:51.719Z,3.35
2022-11-05T09:33:23.401Z,3.33
2022-11-05T09:35:51.809Z,3.03
2022-11-05T09:38:19.526Z,2.90
2022-11-05T09:41:02.991Z,2.75
2022-11-05T09:43:50.070Z,2.80
2022-11-05T09:46:24.552Z,3.00
2022-11-05T09:49:02.226Z,2.90
2022-11-05T09:51:29.670Z,2.45
2022-11-05T09:53:59.680Z,3.35
2022-11-05T09:56:31.454Z,3.08
2022-11-05T09:59:09.008Z,2.45
2022-11-05T10:01:38.358Z,3.40
2022-11-05T10:04:18.740Z,2.38
2022-11-05T10:06:55.714Z,3.13
2022-11-05T10:09:49.632Z,2.42
2022-11-05T10:12:26.534Z,3.05
2022-11-05T10:15:37.438Z,2.03
2022-11-05T10:18:30.819Z,2.55
2022-11-05T10:20:58.388Z,2.33
2022-11-05T10:23:27.678Z,2.08
2022-11-05T10:26:00.544Z,2.22
2022-11-05T10:28:30.989Z,2.78
2022-11-05T10:31:08.422Z,2.47
2022-11-05T10:33:56.934Z,2.30
2022-11-05T10:36:30.038Z,2.47
2022-11-05T10:39:13.981Z,2.20
2022-11-05T10:42:37.005Z,1.95
2022-11-05T10:45:29.312Z,2.67
2022-11-05T10:48:33.650Z,1.83
2022-11-05T10:51:01.598Z,2.67
2022-11-05T10:53:36.346Z,2.25
2022-11-05T10:56:03.915Z,2.30
2022-11-05T10:58:35.329Z,2.40
2022-11-05T11:01:08.722Z,2.10
2022-11-05T11:03:48.833Z,2.80
2022-11-05T11:06:31.473Z,2.38
2022-11-05T11:09:06.484Z,2.40
2022-11-05T11:11:42.647Z,1.83
2022-11-05T11:14:20.908Z,2.75
2022-11-05T11:16:57.184Z,3.17
2022-11-05T11:19:27.833Z,2.17
2022-11-05T11:22:04.698Z,2.15
2022-11-05T11:24:43.461Z,2.13
2022-11-05T11:27:20.099Z,2.30
2022-11-05T11:29:56.969Z,2.45
2022-11-05T11:32:38.984Z,2.05
2022-11-05T11:35:18.064Z,2.20
2022-11-05T11:37:47.184Z,2.05
2022-11-05T11:40:22.890Z,1.98
2022-11-05T11:42:57.810Z,2.30
2022-11-05T11:45:46.144Z,1.42
2022-11-05T11:48:20.123Z,1.98
2022-11-05T11:50:48.976Z,1.90
2022-11-05T11:53:20.647Z,1.95
2022-11-05T11:56:02.795Z,1.90
2022-11-05T11:59:03.357Z,2.25
2022-11-05T12:01:56.976Z,1.63
2022-11-05T12:04:51.227Z,2.00
2022-11-05T12:07:41.721Z,2.28
2022-11-05T12:10:48.916Z,1.70
2022-11-05T12:13:19.077Z,2.60
2022-11-05T12:16:09.709Z,2.20
2022-11-05T12:19:00.113Z,2.10
2022-11-05T12:21:54.315Z,1.50
2022-11-05T12:24:37.328Z,1.63
2022-11-05T12:27:41.455Z,0.85
2022-11-05T12:30:18.893Z,1.60
2022-11-05T12:33:17.431Z,1.27
2022-11-05T12:36:02.680Z,1.38
2022-11-05T12:38:44.752Z,0.90
2022-11-05T12:41:32.865Z,1.02
2022-11-05T12:44:37.530Z,0.85
2022-11-05T12:47:47.380Z,0.70
2022-11-05T12:51:04.736Z,0.22
2022-11-05T12:53:55.084Z,0.20
2022-11-05T12:56:35.093Z,0.10
2022-11-05T12:59:33.892Z,0.10
2022-11-05T13:02:20.706Z,0.25
2022-11-05T13:04:58.023Z,0.10
2022-11-05T13:07:38.954Z,0.30
2022-11-05T13:10:27.242Z,0.20
2022-11-05T13:13:18.313Z,0.20
2022-11-05T13:15:55.144Z,0.20
2022-11-05T13:18:33.422Z,0.10
2022-11-05T13:21:06.797Z,0.30
2022-11-05T13:24:02.848Z,0.30
2022-11-05T13:26:40.135Z,0.10
2022-11-05T13:29:33.392Z,0.10
2022-11-05T13:32:17.174Z,0.08
2022-11-05T13:34:44.130Z,0.10
2022-11-05T13:37:31.676Z,0.10
2022-11-05T13:40:05.574Z,0.05
2022-11-05T13:46:01.421Z,0.00
2022-11-05T13:49:05.524Z,0.10
2022-11-05T13:51:46.102Z,0.10
2022-11-05T13:54:23.109Z,0.00
2022-11-05T13:57:34.126Z,0.00
2022-11-05T14:00:23.467Z,0.00
2022-11-05T14:03:15.054Z,0.00
2022-11-05T14:05:43.664Z,0.10
2022-11-05T14:08:18.008Z,0.43
2022-11-05T14:10:58.678Z,0.10
2022-11-05T14:13:32.567Z,0.20
2022-11-05T14:18:52.936Z,0.00
2022-11-05T14:21:25.846Z,0.10
2022-11-05T14:23:59.181Z,0.05
2022-11-05T14:26:29.911Z,0.10
2022-11-05T14:29:02.941Z,0.10
2022-11-05T14:34:46.279Z,0.10
2022-11-05T14:37:13.142Z,0.30
2022-11-05T14:39:41.872Z,0.10
2022-11-05T14:42:15.085Z,0.10
2022-11-05T14:45:07.075Z,0.10
2022-11-05T14:47:43.432Z,0.10
2022-11-05T14:50:39.090Z,0.00
2022-11-05T14:53:35.216Z,0.03
2022-11-05T14:56:15.690Z,0.20
2022-11-05T14:58:45.002Z,0.08
2022-11-05T15:01:15.029Z,0.00
2022-11-05T15:03:46.202Z,0.28
2022-11-05T15:06:33.646Z,0.00
2022-11-05T15:09:03.617Z,0.10
2022-11-05T15:11:38.549Z,0.00
2022-11-05T15:14:19.975Z,0.00
2022-11-05T15:16:56.205Z,0.30
2022-11-05T15:19:34.214Z,0.10
2022-11-05T15:22:07.205Z,0.00
2022-11-05T15:24:35.218Z,0.00
2022-11-05T15:27:18.816Z,0.10
2022-11-05T15:29:45.979Z,0.03
2022-11-05T15:32:24.706Z,0.08
2022-11-05T15:34:56.361Z,0.10
2022-11-05T15:37:27.006Z,0.00
2022-11-05T15:39:55.572Z,0.00
2022-11-05T15:42:26.555Z,0.00
2022-11-05T15:45:00.398Z,0.00
2022-11-05T15:47:30.541Z,0.00
2022-11-05T15:50:01.545Z,0.00
2022-11-05T15:52:42.173Z,0.00
2022-11-05T15:55:12.108Z,0.00
2022-11-05T15:57:50.952Z,0.10
2022-11-05T16:00:31.963Z,0.00
2022-11-05T16:03:01.594Z,0.00
2022-11-05T16:05:34.448Z,0.00
2022-11-05T16:08:05.217Z,0.10
2022-11-05T16:10:37.811Z,0.10
2022-11-05T16:13:34.924Z,0.10
2022-11-05T16:16:23.467Z,0.90
2022-11-05T16:18:50.907Z,0.77
2022-11-05T16:21:22.742Z,1.10
2022-11-05T16:23:49.740Z,0.50
2022-11-05T16:29:39.049Z,0.68
2022-11-05T16:32:19.290Z,2.10
2022-11-05T16:34:51.326Z,2.05
2022-11-05T16:37:21.748Z,1.70
2022-11-05T16:39:48.832Z,23.75
2022-11-05T16:42:24.633Z,12.40
2022-11-05T16:44:55.168Z,2.45
2022-11-05T16:47:23.097Z,0.30
2022-11-05T16:49:50.877Z,2.05
2022-11-05T16:52:18.598Z,3.90
2022-11-05T16:54:45.570Z,4.32
2022-11-05T16:57:29.896Z,3.00
2022-11-05T17:02:27.467Z,2.00
2022-11-05T17:04:54.614Z,2.50
2022-11-05T17:07:21.620Z,2.15
2022-11-05T17:09:48.661Z,2.33
2022-11-05T17:12:16.542Z,1.85
2022-11-05T17:14:43.457Z,1.80
2022-11-05T17:17:10.660Z,2.58
2022-11-05T17:19:42.952Z,2.60
2022-11-05T17:22:10.857Z,3.13
2022-11-05T17:24:38.915Z,3.60
2022-11-05T17:27:05.998Z,3.90
2022-11-05T17:29:32.899Z,4.97
2022-11-05T17:31:59.806Z,5.28
2022-11-05T17:34:26.720Z,6.22
2022-11-05T17:36:53.652Z,6.28
2022-11-05T17:39:23.140Z,7.57
2022-11-05T17:41:52.294Z,8.68
2022-11-05T17:44:19.564Z,8.15
2022-11-05T17:46:46.602Z,7.03
2022-11-05T17:49:13.497Z,7.38
2022-11-05T17:51:40.378Z,6.68
2022-11-05T17:54:07.576Z,6.38
2022-11-05T17:56:40.271Z,7.35
2022-11-05T17:59:10.591Z,5.88
2022-11-05T18:01:43.149Z,5.95
2022-11-05T18:04:10.998Z,5.43
2022-11-05T18:06:40.649Z,10.73
2022-11-05T18:09:10.184Z,11.73
2022-11-05T18:11:38.188Z,12.00
2022-11-05T18:14:05.451Z,11.40
2022-11-05T18:16:33.097Z,11.10
2022-11-05T18:19:00.361Z,11.75
2022-11-05T18:21:27.912Z,11.98
2022-11-05T18:23:54.987Z,11.63
2022-11-05T18:26:22.009Z,10.35
2022-11-05T18:28:49.300Z,8.75
2022-11-05T18:31:20.957Z,8.82
2022-11-05T18:33:49.401Z,8.77
2022-11-05T18:36:22.953Z,9.55
2022-11-05T18:38:50.517Z,8.82
2022-11-05T18:41:18.864Z,8.65
2022-11-05T18:43:46.530Z,10.13
2022-11-05T18:46:35.815Z,10.30
2022-11-05T18:49:01.099Z,10.30
2022-11-05T18:51:28.235Z,11.02
2022-11-05T18:53:56.320Z,12.20
2022-11-05T18:56:23.976Z,14.88
2022-11-05T18:59:14.684Z,14.45
2022-11-05T19:01:41.309Z,10.95
2022-11-05T19:04:08.889Z,11.35
2022-11-05T19:06:38.546Z,11.20
2022-11-05T19:09:08.905Z,11.00
2022-11-05T19:11:36.402Z,10.23
2022-11-05T19:14:03.417Z,9.57
2022-11-05T19:16:31.100Z,8.35
2022-11-05T19:19:00.584Z,9.32
2022-11-05T19:21:28.184Z,9.05
2022-11-05T19:24:00.159Z,8.85
2022-11-05T19:26:29.147Z,7.68
2022-11-05T19:29:01.789Z,8.80
2022-11-05T19:31:30.780Z,9.07
2022-11-05T19:33:58.462Z,8.93
2022-11-05T19:36:25.867Z,9.52
2022-11-05T19:39:00.017Z,9.57
2022-11-05T19:43:55.088Z,10.90
2022-11-05T19:46:23.929Z,11.60
2022-11-05T19:48:51.193Z,12.90
2022-11-05T19:51:27.677Z,11.05
2022-11-05T19:53:55.378Z,10.77
2022-11-05T19:56:27.203Z,11.30
2022-11-05T19:58:54.803Z,12.73
2022-11-05T20:01:24.562Z,14.18
2022-11-05T20:03:52.145Z,13.38
2022-11-05T20:06:24.119Z,12.48
2022-11-05T20:09:20.019Z,11.52
2022-11-05T20:11:40.404Z,9.43
2022-11-05T20:14:09.388Z,7.50
2022-11-05T20:16:38.987Z,8.82
2022-11-05T20:19:17.222Z,9.55
2022-11-05T20:21:45.546Z,12.35
2022-11-05T20:24:20.508Z,13.27
2022-11-05T20:26:54.864Z,14.35
2022-11-05T20:29:22.781Z,17.08
2022-11-05T20:31:50.664Z,15.43
2022-11-05T20:34:18.358Z,13.52
2022-11-05T20:36:45.722Z,13.20
2022-11-05T20:39:12.800Z,12.75
2022-11-05T20:41:39.973Z,9.82
2022-11-05T20:44:06.988Z,10.63
2022-11-05T20:46:34.208Z,10.05
2022-11-05T20:49:01.147Z,9.50
2022-11-05T20:51:28.322Z,9.88
2022-11-05T20:54:00.992Z,9.82
2022-11-05T20:56:32.000Z,9.00
2022-11-05T20:59:00.788Z,8.60
2022-11-05T21:01:31.381Z,7.55
2022-11-05T21:03:59.617Z,10.23
2022-11-05T21:06:26.631Z,8.70
2022-11-05T21:08:53.982Z,9.80
2022-11-05T21:11:21.390Z,9.40
2022-11-05T21:13:48.765Z,12.65
2022-11-05T21:16:19.033Z,11.48
2022-11-05T21:18:47.789Z,15.32
2022-11-05T21:21:20.206Z,14.57
2022-11-05T21:23:47.436Z,16.05
2022-11-05T21:26:16.810Z,18.98
2022-11-05T21:28:44.047Z,19.48
2022-11-05T21:31:11.276Z,18.23
2022-11-05T21:33:38.804Z,22.92
2022-11-05T21:36:13.211Z,18.13
2022-11-05T21:41:10.504Z,16.75
2022-11-05T21:43:39.679Z,16.25
2022-11-05T21:46:06.670Z,16.90
2022-11-05T21:48:34.032Z,15.60
2022-11-05T21:51:19.848Z,15.60
2022-11-05T21:54:05.767Z,15.30
2022-11-05T21:56:52.383Z,15.38
2022-11-05T21:59:41.580Z,14.90
2022-11-05T22:02:12.021Z,13.93
2022-11-05T22:04:43.027Z,14.43
2022-11-05T22:07:13.755Z,12.48
2022-11-05T22:09:41.240Z,13.35
2022-11-05T22:12:09.173Z,13.07
2022-11-05T22:14:36.600Z,12.48
2022-11-05T22:17:04.276Z,13.57
2022-11-05T22:19:32.032Z,14.48
2022-11-05T22:21:59.454Z,13.60
2022-11-05T22:24:31.874Z,16.42
2022-11-05T22:27:04.722Z,17.38
2022-11-05T22:29:31.694Z,14.32
2022-11-05T22:31:59.149Z,13.70
2022-11-05T22:34:26.692Z,16.27
2022-11-05T22:36:54.555Z,14.55
2022-11-05T22:39:21.734Z,13.48
2022-11-05T22:41:49.662Z,12.30
2022-11-05T22:44:17.354Z,12.27
2022-11-05T22:46:44.538Z,12.45
2022-11-05T22:49:12.182Z,12.95
2022-11-05T22:51:40.055Z,11.23
2022-11-05T22:54:07.873Z,12.15
2022-11-05T22:56:40.861Z,12.43
2022-11-05T22:59:14.138Z,10.02
2022-11-05T23:01:43.524Z,11.25
2022-11-05T23:04:12.218Z,9.75
2022-11-05T23:06:58.751Z,9.27
2022-11-05T23:09:53.440Z,10.02
2022-11-05T23:12:37.943Z,8.75
2022-11-05T23:17:52.202Z,8.43
2022-11-05T23:20:42.195Z,9.27
2022-11-05T23:23:31.596Z,8.57
2022-11-05T23:26:22.360Z,8.80
2022-11-05T23:28:49.733Z,8.07
2022-11-05T23:31:35.551Z,8.00
2022-11-05T23:34:03.118Z,7.68
2022-11-05T23:36:48.992Z,8.48
2022-11-05T23:39:16.181Z,7.57
2022-11-05T23:42:01.750Z,8.48
2022-11-05T23:44:47.287Z,7.00
2022-11-05T23:47:32.801Z,7.32
2022-11-05T23:49:59.733Z,8.10
2022-11-05T23:52:27.023Z,9.05
2022-11-05T23:54:53.977Z,8.48
2022-11-05T23:57:20.871Z,8.27
2022-11-05T23:59:48.637Z,8.95
